createdAt,value
2022-07-29T00:01:44.568Z,37.54
2022-07-29T00:04:13.792Z,37.28
2022-07-29T00:06:42.387Z,37.93
2022-07-29T00:09:11.211Z,37.65
2022-07-29T00:11:39.933Z,37.43
2022-07-29T00:14:08.241Z,36.80
2022-07-29T00:16:36.401Z,36.70
2022-07-29T00:19:05.460Z,36.81
2022-07-29T00:21:35.971Z,36.39
2022-07-29T00:24:06.192Z,36.48
2022-07-29T00:26:34.670Z,36.46
2022-07-29T00:29:33.073Z,36.53
2022-07-29T00:31:53.513Z,36.41
2022-07-29T00:34:40.415Z,36.49
2022-07-29T00:37:10.016Z,36.11
2022-07-29T00:39:39.306Z,36.14
2022-07-29T00:42:08.949Z,36.15
2022-07-29T00:44:41.903Z,36.05
2022-07-29T00:47:11.928Z,36.22
2022-07-29T00:49:42.327Z,36.40
2022-07-29T00:52:12.337Z,36.43
2022-07-29T00:54:44.523Z,36.65
2022-07-29T00:57:14.290Z,36.31
2022-07-29T00:59:43.773Z,36.75
2022-07-29T01:02:12.287Z,36.81
2022-07-29T01:04:40.939Z,37.07
2022-07-29T01:07:11.330Z,36.82
2022-07-29T01:09:46.160Z,36.58
2022-07-29T01:12:19.435Z,36.54
2022-07-29T01:14:48.683Z,37.06
2022-07-29T01:17:35.643Z,37.04
2022-07-29T01:20:23.871Z,36.73
2022-07-29T01:23:05.976Z,36.98
2022-07-29T01:25:33.958Z,37.12
2022-07-29T01:28:21.134Z,37.12
2022-07-29T01:30:53.118Z,37.01
2022-07-29T01:33:40.950Z,36.37
2022-07-29T01:36:16.586Z,36.79
2022-07-29T01:38:55.741Z,37.40
2022-07-29T01:41:29.525Z,36.95
2022-07-29T01:44:04.904Z,36.88
2022-07-29T01:46:39.446Z,37.09
2022-07-29T01:49:26.556Z,37.39
2022-07-29T01:52:13.353Z,37.57
2022-07-29T01:54:47.189Z,37.95
2022-07-29T01:57:20.468Z,37.62
2022-07-29T01:59:50.008Z,37.85
2022-07-29T02:02:19.539Z,37.83
2022-07-29T02:04:51.855Z,37.97
2022-07-29T02:07:22.442Z,37.63
2022-07-29T02:09:52.266Z,37.55
2022-07-29T02:12:21.733Z,38.02
2022-07-29T02:14:53.017Z,37.90
2022-07-29T02:17:29.631Z,37.62
2022-07-29T02:20:01.349Z,37.42
2022-07-29T02:22:31.606Z,37.64
2022-07-29T02:25:00.080Z,38.06
2022-07-29T02:27:30.160Z,38.61
2022-07-29T02:29:59.116Z,38.27
2022-07-29T02:32:28.913Z,38.85
2022-07-29T02:35:02.808Z,38.41
2022-07-29T02:37:32.590Z,39.05
2022-07-29T02:40:01.070Z,39.17
2022-07-29T02:42:30.021Z,38.81
2022-07-29T02:44:58.096Z,38.88
2022-07-29T02:47:41.365Z,38.30
2022-07-29T02:50:14.593Z,38.76
2022-07-29T02:52:45.949Z,38.32
2022-07-29T02:55:23.537Z,38.59
2022-07-29T02:58:08.418Z,38.72
2022-07-29T03:00:39.025Z,39.08
2022-07-29T03:03:10.585Z,38.71
2022-07-29T03:05:39.869Z,39.19
2022-07-29T03:08:10.451Z,39.30
2022-07-29T03:10:44.536Z,39.63
2022-07-29T03:13:14.243Z,39.15
2022-07-29T03:15:47.054Z,39.41
2022-07-29T03:18:16.044Z,39.81
2022-07-29T03:20:44.976Z,38.72
2022-07-29T03:23:13.061Z,38.62
2022-07-29T03:25:41.090Z,38.97
2022-07-29T03:28:10.848Z,39.25
2022-07-29T03:30:39.129Z,39.26
2022-07-29T03:33:13.584Z,39.75
2022-07-29T03:35:44.239Z,39.57
2022-07-29T03:38:12.811Z,39.36
2022-07-29T03:40:50.177Z,40.14
2022-07-29T03:43:19.655Z,39.75
2022-07-29T03:45:50.410Z,39.77
2022-07-29T03:48:19.256Z,40.42
2022-07-29T03:50:48.097Z,39.63
2022-07-29T03:53:17.022Z,39.20
2022-07-29T03:55:48.594Z,39.10
2022-07-29T03:58:17.523Z,39.26
2022-07-29T04:00:46.271Z,39.32
2022-07-29T04:03:15.806Z,39.52
2022-07-29T04:05:44.053Z,38.98
2022-07-29T04:08:12.164Z,38.90
2022-07-29T04:10:42.556Z,39.84
2022-07-29T04:13:10.787Z,39.96
2022-07-29T04:15:39.047Z,39.86
2022-07-29T04:18:09.293Z,39.55
2022-07-29T04:20:36.921Z,39.94
2022-07-29T04:23:05.535Z,39.70
2022-07-29T04:25:34.350Z,39.73
2022-07-29T04:28:02.484Z,39.47
2022-07-29T04:30:31.668Z,39.22
2022-07-29T04:33:02.033Z,39.76
2022-07-29T04:35:38.057Z,39.54
2022-07-29T04:38:15.885Z,40.03
2022-07-29T04:40:45.463Z,39.25
2022-07-29T04:43:22.472Z,39.42
2022-07-29T04:45:51.490Z,39.57
2022-07-29T04:48:25.300Z,39.59
2022-07-29T04:50:57.676Z,39.21
2022-07-29T04:53:27.975Z,39.13
2022-07-29T04:55:56.693Z,38.69
2022-07-29T04:58:25.025Z,39.42
2022-07-29T05:00:55.096Z,39.22
2022-07-29T05:03:23.340Z,38.96
2022-07-29T05:05:52.472Z,38.93
2022-07-29T05:08:21.977Z,38.63
2022-07-29T05:10:50.237Z,38.96
2022-07-29T05:13:18.414Z,39.49
2022-07-29T05:15:47.351Z,38.91
2022-07-29T05:18:15.553Z,38.37
2022-07-29T05:20:43.511Z,37.98
2022-07-29T05:23:13.929Z,38.40
2022-07-29T05:25:44.081Z,37.65
2022-07-29T05:28:13.792Z,38.42
2022-07-29T05:30:42.513Z,37.47
2022-07-29T05:33:34.712Z,36.92
2022-07-29T05:36:01.078Z,36.42
2022-07-29T05:38:30.272Z,36.58
2022-07-29T05:41:01.681Z,36.25
2022-07-29T05:43:30.161Z,35.93
2022-07-29T05:45:59.373Z,35.51
2022-07-29T05:48:27.085Z,35.25
2022-07-29T05:50:55.759Z,35.39
2022-07-29T05:53:24.360Z,35.23
2022-07-29T05:55:53.225Z,35.49
2022-07-29T05:58:21.523Z,35.19
2022-07-29T06:00:50.143Z,35.12
2022-07-29T06:03:18.981Z,34.85
2022-07-29T06:05:47.173Z,34.50
2022-07-29T06:08:15.393Z,34.53
2022-07-29T06:10:44.957Z,34.27
2022-07-29T06:13:14.085Z,34.15
2022-07-29T06:15:44.481Z,34.46
2022-07-29T06:18:14.448Z,34.24
2022-07-29T06:20:42.480Z,34.11
2022-07-29T06:23:11.242Z,34.29
2022-07-29T06:25:41.512Z,34.17
2022-07-29T06:28:09.167Z,34.12
2022-07-29T06:30:38.579Z,33.82
2022-07-29T06:33:09.480Z,33.88
2022-07-29T06:35:41.863Z,33.51
2022-07-29T06:38:31.714Z,33.75
2022-07-29T06:41:01.918Z,34.07
2022-07-29T06:43:35.198Z,33.77
2022-07-29T06:46:05.068Z,33.82
2022-07-29T06:48:34.329Z,33.31
2022-07-29T06:51:02.847Z,33.40
2022-07-29T06:53:32.100Z,32.93
2022-07-29T06:56:02.228Z,33.11
2022-07-29T06:58:30.428Z,32.75
2022-07-29T07:00:59.743Z,32.71
2022-07-29T07:03:29.070Z,32.84
2022-07-29T07:05:59.561Z,32.79
2022-07-29T07:08:28.576Z,32.72
2022-07-29T07:10:58.266Z,32.55
2022-07-29T07:13:26.989Z,32.17
2022-07-29T07:15:56.819Z,32.00
2022-07-29T07:18:25.865Z,31.70
2022-07-29T07:20:53.917Z,31.94
2022-07-29T07:23:22.515Z,32.29
2022-07-29T07:26:06.999Z,32.11
2022-07-29T07:28:36.321Z,31.77
2022-07-29T07:31:04.776Z,31.50
2022-07-29T07:33:33.203Z,31.92
2022-07-29T07:36:06.003Z,31.85
2022-07-29T07:38:34.468Z,31.89
2022-07-29T07:41:04.357Z,31.22
2022-07-29T07:43:32.685Z,31.23
2022-07-29T07:46:01.356Z,31.00
2022-07-29T07:48:30.488Z,31.00
2022-07-29T07:50:58.313Z,30.37
2022-07-29T07:53:27.519Z,30.25
2022-07-29T07:56:12.667Z,30.26
2022-07-29T07:58:41.303Z,30.27
2022-07-29T08:01:10.869Z,29.99
2022-07-29T08:03:40.026Z,29.62
2022-07-29T08:06:08.271Z,29.76
2022-07-29T08:08:36.024Z,30.14
2022-07-29T08:11:09.355Z,29.65
2022-07-29T08:13:39.321Z,29.63
2022-07-29T08:16:16.277Z,29.20
2022-07-29T08:18:47.302Z,29.35
2022-07-29T08:21:16.271Z,29.14
2022-07-29T08:23:51.686Z,28.80
2022-07-29T08:26:26.377Z,28.64
2022-07-29T08:28:55.286Z,28.54
2022-07-29T08:31:23.419Z,28.37
2022-07-29T08:33:52.807Z,28.48
2022-07-29T08:36:22.150Z,28.14
2022-07-29T08:38:52.021Z,27.88
2022-07-29T08:41:21.178Z,28.37
2022-07-29T08:43:50.191Z,27.62
2022-07-29T08:46:18.781Z,27.17
2022-07-29T08:48:47.437Z,27.12
2022-07-29T08:51:18.103Z,26.93
2022-07-29T08:53:49.239Z,26.47
2022-07-29T08:56:20.364Z,26.11
2022-07-29T08:58:50.728Z,26.01
2022-07-29T09:01:36.136Z,25.98
2022-07-29T09:04:13.124Z,25.68
2022-07-29T09:06:45.134Z,25.34
2022-07-29T09:09:14.836Z,25.13
2022-07-29T09:11:43.800Z,25.06
2022-07-29T09:14:14.769Z,24.60
2022-07-29T09:16:55.909Z,24.70
2022-07-29T09:19:24.270Z,24.18
2022-07-29T09:21:59.372Z,23.66
2022-07-29T09:24:40.817Z,23.52
2022-07-29T09:27:20.075Z,23.94
2022-07-29T09:29:56.333Z,23.81
2022-07-29T09:32:25.682Z,23.62
2022-07-29T09:35:17.522Z,23.47
2022-07-29T09:37:46.375Z,22.95
2022-07-29T09:40:25.170Z,22.71
2022-07-29T09:42:56.674Z,22.73
2022-07-29T09:45:33.959Z,22.13
2022-07-29T09:48:35.872Z,21.97
2022-07-29T09:51:03.719Z,21.79
2022-07-29T09:53:38.125Z,21.90
2022-07-29T09:56:06.390Z,21.72
2022-07-29T09:58:35.695Z,21.56
2022-07-29T10:01:04.539Z,21.19
2022-07-29T10:03:32.501Z,21.46
2022-07-29T10:06:09.990Z,21.84
2022-07-29T10:08:38.569Z,21.41
2022-07-29T10:11:17.463Z,20.98
2022-07-29T10:13:48.457Z,20.30
2022-07-29T10:16:17.838Z,20.44
2022-07-29T10:18:47.974Z,21.47
2022-07-29T10:21:35.012Z,20.18
2022-07-29T10:24:06.181Z,19.90
2022-07-29T10:26:34.044Z,20.25
2022-07-29T10:29:02.724Z,19.90
2022-07-29T10:31:59.784Z,19.62
2022-07-29T10:34:35.772Z,19.81
2022-07-29T10:37:15.570Z,19.58
2022-07-29T10:39:58.178Z,19.43
2022-07-29T10:42:34.048Z,19.74
2022-07-29T10:45:05.396Z,19.55
2022-07-29T10:47:35.763Z,19.88
2022-07-29T10:50:07.275Z,19.47
2022-07-29T10:52:53.903Z,19.04
2022-07-29T10:55:43.774Z,19.12
2022-07-29T10:58:14.688Z,19.13
2022-07-29T11:00:42.957Z,19.29
2022-07-29T11:03:53.764Z,18.92
2022-07-29T11:06:28.230Z,18.51
2022-07-29T11:09:37.794Z,18.93
2022-07-29T11:12:39.426Z,19.40
2022-07-29T11:15:13.779Z,19.31
2022-07-29T11:18:03.688Z,19.29
2022-07-29T11:20:35.047Z,19.09
2022-07-29T11:23:42.814Z,18.98
2022-07-29T11:26:23.201Z,19.77
2022-07-29T11:28:51.625Z,19.70
2022-07-29T11:31:36.040Z,18.94
2022-07-29T11:34:22.888Z,18.89
2022-07-29T11:37:15.185Z,18.94
2022-07-29T11:42:35.544Z,18.95
2022-07-29T11:45:41.580Z,19.08
2022-07-29T11:48:29.521Z,19.17
2022-07-29T11:51:11.044Z,18.69
2022-07-29T11:53:41.529Z,18.04
2022-07-29T11:56:10.606Z,17.71
2022-07-29T11:58:45.972Z,17.78
2022-07-29T12:01:15.402Z,18.14
2022-07-29T12:06:32.362Z,18.32
2022-07-29T12:07:03.249Z,18.12
2022-07-29T12:09:01.374Z,17.66
2022-07-29T12:11:30.190Z,17.36
2022-07-29T12:13:58.743Z,17.47
2022-07-29T12:16:38.392Z,17.52
2022-07-29T12:19:07.835Z,17.37
2022-07-29T12:21:56.146Z,17.62
2022-07-29T12:24:26.489Z,18.01
2022-07-29T12:26:57.163Z,18.11
2022-07-29T12:29:33.692Z,18.39
2022-07-29T12:32:15.029Z,18.79
2022-07-29T12:34:49.582Z,19.15
2022-07-29T12:37:18.543Z,19.17
2022-07-29T12:39:46.820Z,19.06
2022-07-29T12:42:18.424Z,18.96
2022-07-29T12:44:51.569Z,18.72
2022-07-29T12:47:20.886Z,18.59
2022-07-29T12:49:50.685Z,18.19
2022-07-29T12:52:26.180Z,17.57
2022-07-29T12:54:54.963Z,17.56
2022-07-29T12:57:23.570Z,17.25
2022-07-29T13:00:11.831Z,17.42
2022-07-29T13:02:41.994Z,17.72
2022-07-29T13:05:12.135Z,17.37
2022-07-29T13:07:55.576Z,17.48
2022-07-29T13:10:26.286Z,17.63
2022-07-29T13:13:10.636Z,17.44
2022-07-29T13:15:45.053Z,17.87
2022-07-29T13:18:29.321Z,17.38
2022-07-29T13:20:58.267Z,17.51
2022-07-29T13:23:27.753Z,17.82
2022-07-29T13:25:56.150Z,17.23
2022-07-29T13:28:26.341Z,17.69
2022-07-29T13:30:54.077Z,17.56
2022-07-29T13:33:23.306Z,17.48
2022-07-29T13:35:51.758Z,17.77
2022-07-29T13:38:20.272Z,17.69
2022-07-29T13:40:48.564Z,17.60
2022-07-29T13:43:17.203Z,17.27
2022-07-29T13:45:45.562Z,16.95
2022-07-29T13:48:13.286Z,16.44
2022-07-29T13:50:41.734Z,16.23
2022-07-29T13:53:10.194Z,16.70
2022-07-29T13:55:46.286Z,17.49
2022-07-29T13:58:15.095Z,17.18
2022-07-29T14:00:42.784Z,17.39
2022-07-29T14:03:11.063Z,17.05
2022-07-29T14:05:38.828Z,17.63
2022-07-29T14:08:06.978Z,17.47
2022-07-29T14:10:35.794Z,17.01
2022-07-29T14:13:07.236Z,16.67
2022-07-29T14:15:54.558Z,16.62
2022-07-29T14:18:23.324Z,17.04
2022-07-29T14:20:52.209Z,17.12
2022-07-29T14:23:20.510Z,16.81
2022-07-29T14:25:49.381Z,16.82
2022-07-29T14:28:17.926Z,16.52
2022-07-29T14:30:46.958Z,16.39
2022-07-29T14:33:14.791Z,16.79
2022-07-29T14:35:42.981Z,17.23
2022-07-29T14:38:12.965Z,17.14
2022-07-29T14:40:41.741Z,17.08
2022-07-29T14:43:09.926Z,17.19
2022-07-29T14:45:39.169Z,17.15
2022-07-29T14:48:07.097Z,16.99
2022-07-29T14:50:35.495Z,17.20
2022-07-29T14:53:15.991Z,17.14
2022-07-29T14:55:53.288Z,17.09
2022-07-29T14:58:24.642Z,17.09
2022-07-29T15:00:57.959Z,16.89
2022-07-29T15:03:36.158Z,17.00
2022-07-29T15:06:13.629Z,17.19
2022-07-29T15:08:47.103Z,16.97
2022-07-29T15:11:15.349Z,17.12
2022-07-29T15:13:44.590Z,17.46
2022-07-29T15:16:12.918Z,17.56
2022-07-29T15:18:41.070Z,18.02
2022-07-29T15:21:10.192Z,17.59
2022-07-29T15:23:39.726Z,17.98
2022-07-29T15:26:08.299Z,17.55
2022-07-29T15:28:36.651Z,17.52
2022-07-29T15:31:08.050Z,17.56
2022-07-29T15:33:39.648Z,17.58
2022-07-29T15:36:25.423Z,18.60
2022-07-29T15:39:09.815Z,18.64
2022-07-29T15:41:40.277Z,18.03
2022-07-29T15:44:16.477Z,17.67
2022-07-29T15:47:06.265Z,18.13
2022-07-29T15:49:47.915Z,17.96
2022-07-29T15:52:25.930Z,18.60
2022-07-29T15:55:01.388Z,18.25
2022-07-29T15:57:31.641Z,17.68
2022-07-29T16:00:04.137Z,18.48
2022-07-29T16:02:40.354Z,18.99
2022-07-29T16:05:14.081Z,18.77
2022-07-29T16:07:43.629Z,19.02
2022-07-29T16:10:26.580Z,18.86
2022-07-29T16:12:57.424Z,19.14
2022-07-29T16:15:29.669Z,18.95
2022-07-29T16:18:01.799Z,18.36
2022-07-29T16:20:40.098Z,18.68
2022-07-29T16:23:12.410Z,18.61
2022-07-29T16:25:59.130Z,18.43
2022-07-29T16:28:34.339Z,18.10
2022-07-29T16:31:11.939Z,17.87
2022-07-29T16:33:55.278Z,18.07
2022-07-29T16:36:31.170Z,18.22
2022-07-29T16:39:02.446Z,18.25
2022-07-29T16:41:38.464Z,18.34
2022-07-29T16:44:09.539Z,18.80
2022-07-29T16:46:40.254Z,19.46
2022-07-29T16:49:09.818Z,19.28
2022-07-29T16:51:43.830Z,20.00
2022-07-29T16:54:13.096Z,19.78
2022-07-29T16:56:43.083Z,19.69
2022-07-29T16:59:15.056Z,19.59
2022-07-29T17:01:45.139Z,19.71
2022-07-29T17:04:19.737Z,19.71
2022-07-29T17:06:53.630Z,19.50
2022-07-29T17:09:24.613Z,19.81
2022-07-29T17:11:55.331Z,19.89
2022-07-29T17:14:36.337Z,20.40
2022-07-29T17:17:13.885Z,20.18
2022-07-29T17:19:45.136Z,20.21
2022-07-29T17:22:20.114Z,20.75
2022-07-29T17:24:57.630Z,20.57
2022-07-29T17:27:33.101Z,20.84
2022-07-29T17:30:07.432Z,20.93
2022-07-29T17:32:40.265Z,21.01
2022-07-29T17:35:32.751Z,20.92
2022-07-29T17:38:13.956Z,21.32
2022-07-29T17:40:44.620Z,21.54
2022-07-29T17:43:13.563Z,21.84
2022-07-29T17:45:49.406Z,21.91
2022-07-29T17:48:20.123Z,21.80
2022-07-29T17:50:48.998Z,21.83
2022-07-29T17:53:21.601Z,21.77
2022-07-29T17:55:52.476Z,22.65
2022-07-29T17:58:20.703Z,22.60
2022-07-29T18:00:51.575Z,23.08
2022-07-29T18:03:23.996Z,23.79
2022-07-29T18:05:55.141Z,24.86
2022-07-29T18:08:26.403Z,25.52
2022-07-29T18:10:57.834Z,25.52
2022-07-29T18:13:28.159Z,25.73
2022-07-29T18:16:03.466Z,26.41
2022-07-29T18:18:31.830Z,26.65
2022-07-29T18:20:59.756Z,26.80
2022-07-29T18:23:32.397Z,26.58
2022-07-29T18:26:04.271Z,26.76
2022-07-29T18:28:34.909Z,26.35
2022-07-29T18:31:03.861Z,26.59
2022-07-29T18:33:33.007Z,27.00
2022-07-29T18:36:10.769Z,27.09
2022-07-29T18:38:41.335Z,27.50
2022-07-29T18:41:09.665Z,27.11
2022-07-29T18:43:40.174Z,26.90
2022-07-29T18:46:08.415Z,26.90
2022-07-29T18:48:38.908Z,26.55
2022-07-29T18:51:14.968Z,26.47
2022-07-29T18:53:45.000Z,26.47
2022-07-29T18:56:15.304Z,26.61
2022-07-29T18:58:43.213Z,26.59
2022-07-29T19:01:16.715Z,26.90
2022-07-29T19:03:44.748Z,26.98
2022-07-29T19:06:13.312Z,29.38
2022-07-29T19:08:42.027Z,29.98
2022-07-29T19:11:15.702Z,30.29
2022-07-29T19:13:44.938Z,30.99
2022-07-29T19:16:14.290Z,31.51
2022-07-29T19:18:43.355Z,31.65
2022-07-29T19:21:11.911Z,31.11
2022-07-29T19:24:01.574Z,30.16
2022-07-29T19:26:34.377Z,29.37
2022-07-29T19:29:04.752Z,29.09
2022-07-29T19:31:34.445Z,28.75
2022-07-29T19:34:06.151Z,28.81
2022-07-29T19:36:38.638Z,29.91
2022-07-29T19:39:07.872Z,29.99
2022-07-29T19:41:40.782Z,30.48
2022-07-29T19:44:09.388Z,30.22
2022-07-29T19:46:38.355Z,30.08
2022-07-29T19:49:06.941Z,29.97
2022-07-29T19:51:35.072Z,29.56
2022-07-29T19:54:04.265Z,29.42
2022-07-29T19:56:33.528Z,29.29
2022-07-29T19:59:05.268Z,29.58
2022-07-29T20:01:35.856Z,29.95
2022-07-29T20:04:06.343Z,30.07
2022-07-29T20:06:37.283Z,29.59
2022-07-29T20:09:07.585Z,29.79
2022-07-29T20:11:45.373Z,29.84
2022-07-29T20:14:13.747Z,30.22
2022-07-29T20:16:42.901Z,30.38
2022-07-29T20:19:16.377Z,29.97
2022-07-29T20:21:49.484Z,29.97
2022-07-29T20:24:19.862Z,29.73
2022-07-29T20:26:50.043Z,30.33
2022-07-29T20:29:19.233Z,30.48
2022-07-29T20:31:52.299Z,30.82
2022-07-29T20:34:25.048Z,31.00
2022-07-29T20:36:54.883Z,30.94
2022-07-29T20:39:26.318Z,31.30
2022-07-29T20:41:55.012Z,31.12
2022-07-29T20:44:24.417Z,31.18
2022-07-29T20:46:52.887Z,31.31
2022-07-29T20:49:24.033Z,31.11
2022-07-29T20:51:56.310Z,31.39
2022-07-29T20:54:24.477Z,30.98
2022-07-29T20:56:53.333Z,30.99
2022-07-29T20:59:21.837Z,31.46
2022-07-29T21:01:55.835Z,32.27
2022-07-29T21:04:26.034Z,31.65
2022-07-29T21:06:59.260Z,31.87
2022-07-29T21:09:45.662Z,32.19
2022-07-29T21:12:14.447Z,31.71
2022-07-29T21:14:51.910Z,31.70
2022-07-29T21:17:22.611Z,32.18
2022-07-29T21:19:55.523Z,31.60
2022-07-29T21:22:23.470Z,31.99
2022-07-29T21:24:51.956Z,32.24
2022-07-29T21:27:40.910Z,32.82
2022-07-29T21:30:10.518Z,32.77
2022-07-29T21:32:40.718Z,32.73
2022-07-29T21:35:18.273Z,32.95
2022-07-29T21:37:58.339Z,33.47
2022-07-29T21:40:26.657Z,33.70
2022-07-29T21:42:54.802Z,34.47
2022-07-29T21:45:23.991Z,34.63
2022-07-29T21:47:51.849Z,35.96
2022-07-29T21:50:20.132Z,35.03
2022-07-29T21:52:50.128Z,35.75
2022-07-29T21:55:19.323Z,35.88
2022-07-29T21:57:51.844Z,35.64
2022-07-29T22:00:22.083Z,35.48
2022-07-29T22:02:53.791Z,36.20
2022-07-29T22:05:22.098Z,36.85
2022-07-29T22:07:55.215Z,36.38
2022-07-29T22:10:32.487Z,36.86
2022-07-29T22:13:03.728Z,37.71
2022-07-29T22:15:33.139Z,37.31
2022-07-29T22:18:05.610Z,38.21
2022-07-29T22:20:34.860Z,38.30
2022-07-29T22:23:05.465Z,38.98
2022-07-29T22:25:37.049Z,39.00
2022-07-29T22:28:06.820Z,39.11
2022-07-29T22:30:38.056Z,39.00
2022-07-29T22:33:09.454Z,39.55
2022-07-29T22:35:48.745Z,39.32
2022-07-29T22:38:20.943Z,39.97
2022-07-29T22:40:52.171Z,39.63
2022-07-29T22:43:23.459Z,39.74
2022-07-29T22:45:54.112Z,40.25
2022-07-29T22:48:23.937Z,39.99
2022-07-29T22:50:53.245Z,40.55
2022-07-29T22:53:23.352Z,40.71
2022-07-29T22:55:56.787Z,41.42
2022-07-29T22:58:26.463Z,41.60
2022-07-29T23:00:57.009Z,41.15
2022-07-29T23:03:27.885Z,41.30
2022-07-29T23:06:02.596Z,42.04
2022-07-29T23:08:32.792Z,41.09
2022-07-29T23:11:04.942Z,42.27
2022-07-29T23:13:34.592Z,41.72
2022-07-29T23:16:05.511Z,42.23
2022-07-29T23:18:38.489Z,42.45
2022-07-29T23:21:12.686Z,42.52
2022-07-29T23:23:41.817Z,43.16
2022-07-29T23:26:17.218Z,43.29
2022-07-29T23:28:47.683Z,43.27
2022-07-29T23:31:21.343Z,43.66
2022-07-29T23:33:55.920Z,43.31
2022-07-29T23:36:31.871Z,44.07
2022-07-29T23:39:04.289Z,44.35
2022-07-29T23:41:35.760Z,43.96
2022-07-29T23:44:06.581Z,43.93
2022-07-29T23:46:36.194Z,45.27
2022-07-29T23:49:08.496Z,44.66
2022-07-29T23:51:38.564Z,44.31
2022-07-29T23:54:08.435Z,44.52
2022-07-29T23:56:40.924Z,44.52
2022-07-29T23:59:10.820Z,45.46
